Time;durP1;ratioP1;P1;durP2;ratioP2;P2;SDS_P1;SDS_P2;PMS_P1;PMS_P2;Temp;Humidity;BMP_temperature;BMP_pressure;BME280_temperature;BME280_humidity;BME280_pressure;Samples;Min_cycle;Max_cycle;Signal;HPM_P1;HPM_P2
2024/01/27 00:00:49;;;;;;;8.60;1.57;;;5.40;1.00;;;;;;5032080;28;20212;-79
2024/01/27 00:03:16;;;;;;;15.63;2.57;;;5.40;9.40;;;;;;5040377;28;20211;-80
2024/01/27 00:05:44;;;;;;;12.83;2.30;;;5.40;27.50;;;;;;5034172;28;20223;-80
2024/01/27 00:08:11;;;;;;;10.10;1.93;;;5.40;61.70;;;;;;5033225;28;20203;-80
2024/01/27 00:10:38;;;;;;;13.13;2.30;;;5.40;91.20;;;;;;5035278;28;20210;-80
2024/01/27 00:13:05;;;;;;;14.40;2.53;;;5.40;99.90;;;;;;5038358;28;20216;-80
2024/01/27 00:15:32;;;;;;;13.13;2.17;;;5.40;99.90;;;;;;5035781;28;20230;-80
2024/01/27 00:17:58;;;;;;;12.87;2.50;;;5.40;99.90;;;;;;5045322;28;20685;-81
2024/01/27 00:20:25;;;;;;;11.17;2.60;;;5.50;99.90;;;;;;5041729;28;20202;-79
2024/01/27 00:22:53;;;;;;;9.73;2.50;;;5.40;99.90;;;;;;5038801;28;20681;-80
2024/01/27 00:25:20;;;;;;;11.97;2.47;;;5.40;99.90;;;;;;5038603;28;20222;-79
2024/01/27 00:27:47;;;;;;;12.67;2.00;;;5.40;99.90;;;;;;5037013;28;20204;-80
2024/01/27 00:30:14;;;;;;;15.90;3.53;;;5.50;99.90;;;;;;5042030;28;20195;-79
2024/01/27 00:32:41;;;;;;;16.57;2.63;;;5.40;99.90;;;;;;5034810;28;20202;-80
2024/01/27 00:35:09;;;;;;;17.30;2.40;;;5.40;99.90;;;;;;5036536;28;20213;-79
2024/01/27 00:37:36;;;;;;;13.67;1.90;;;5.40;99.90;;;;;;5038826;28;20202;-79
2024/01/27 00:40:05;;;;;;;17.70;2.80;;;5.40;99.90;;;;;;5038806;28;20219;-79
2024/01/27 00:42:31;;;;;;;13.17;3.17;;;5.40;99.90;;;;;;5035223;28;20210;-79
2024/01/27 00:44:58;;;;;;;10.30;2.83;;;5.40;99.90;;;;;;5036816;28;20222;-80
2024/01/27 00:47:25;;;;;;;12.97;2.47;;;5.40;1.00;;;;;;5035885;28;20210;-79
2024/01/27 00:49:53;;;;;;;11.27;2.30;;;5.30;1.00;;;;;;5037332;28;20214;-79
2024/01/27 00:52:20;;;;;;;10.70;3.20;;;5.40;1.00;;;;;;5043748;28;20207;-79
2024/01/27 00:54:47;;;;;;;13.93;2.60;;;5.50;1.00;;;;;;5038515;28;20200;-80
2024/01/27 00:57:16;;;;;;;14.30;2.27;;;5.40;1.00;;;;;;5036127;28;20223;-80
2024/01/27 00:59:43;;;;;;;17.57;3.60;;;5.40;1.00;;;;;;5036607;28;20227;-80
2024/01/27 01:02:10;;;;;;;14.67;2.40;;;5.40;1.00;;;;;;5048000;28;20317;-80
2024/01/27 01:04:37;;;;;;;15.43;3.00;;;5.50;1.00;;;;;;5040555;28;20199;-79
2024/01/27 01:07:04;;;;;;;11.90;2.30;;;5.40;1.00;;;;;;5047444;28;20231;-79
2024/01/27 01:09:30;;;;;;;15.17;2.30;;;5.50;1.00;;;;;;5041551;28;20210;-79
2024/01/27 01:11:57;;;;;;;16.17;3.27;;;5.50;1.00;;;;;;5034510;28;20849;-80
2024/01/27 01:14:25;;;;;;;13.57;2.57;;;5.60;1.00;;;;;;5036969;28;20573;-79
2024/01/27 01:16:52;;;;;;;20.17;3.23;;;5.60;1.00;;;;;;5037082;28;20238;-78
2024/01/27 01:19:20;;;;;;;14.93;2.70;;;5.50;1.00;;;;;;5037766;28;20251;-79
2024/01/27 01:21:46;;;;;;;11.33;2.53;;;5.50;1.00;;;;;;5035706;28;20199;-79
2024/01/27 01:24:13;;;;;;;11.37;2.40;;;5.50;1.00;;;;;;5040256;28;20210;-79
2024/01/27 01:26:40;;;;;;;11.37;2.63;;;5.40;1.00;;;;;;5035366;28;20732;-80
2024/01/27 01:29:07;;;;;;;15.57;2.93;;;5.40;1.00;;;;;;5037476;28;20295;-79
2024/01/27 01:31:35;;;;;;;13.70;3.13;;;5.30;1.00;;;;;;5037117;28;20211;-79
2024/01/27 01:34:02;;;;;;;16.40;3.13;;;5.20;1.00;;;;;;5040626;28;20282;-79
2024/01/27 01:36:28;;;;;;;15.17;2.40;;;5.10;35.40;;;;;;5037357;28;20230;-79
2024/01/27 01:38:55;;;;;;;10.17;2.27;;;5.00;99.90;;;;;;5037324;28;20708;-79
2024/01/27 01:41:22;;;;;;;20.67;3.50;;;5.20;99.90;;;;;;5041326;28;20560;-79
2024/01/27 01:43:49;;;;;;;19.13;3.40;;;4.90;99.90;;;;;;5040143;28;20210;-78
2024/01/27 01:46:16;;;;;;;12.40;2.33;;;4.90;99.90;;;;;;5039801;28;21059;-79
2024/01/27 01:48:44;;;;;;;12.17;2.90;;;5.00;99.90;;;;;;5044895;28;20230;-79
2024/01/27 01:51:12;;;;;;;16.23;3.23;;;5.00;1.00;;;;;;5046168;28;20211;-79
2024/01/27 01:53:39;;;;;;;14.43;2.83;;;4.90;99.90;;;;;;5037393;28;20199;-79
2024/01/27 01:56:08;;;;;;;10.80;2.80;;;4.80;99.90;;;;;;5047063;28;20230;-79
2024/01/27 01:58:35;;;;;;;13.10;3.47;;;4.80;99.90;;;;;;5034664;28;20242;-79
2024/01/27 02:01:02;;;;;;;17.80;3.20;;;5.00;99.90;;;;;;5030248;28;20204;-79
2024/01/27 02:03:29;;;;;;;12.83;2.50;;;4.80;99.90;;;;;;5034264;28;20583;-79
2024/01/27 02:05:57;;;;;;;16.67;2.33;;;4.90;1.00;;;;;;5031388;28;20222;-78
2024/01/27 02:08:24;;;;;;;15.37;3.63;;;4.90;1.00;;;;;;5040725;28;20214;-80
2024/01/27 02:10:51;;;;;;;19.00;3.10;;;5.00;1.00;;;;;;5043337;28;20245;-79
2024/01/27 02:13:19;;;;;;;13.57;2.30;;;5.00;1.00;;;;;;5047514;28;20211;-79
2024/01/27 02:15:46;;;;;;;12.80;2.13;;;4.90;1.00;;;;;;5043236;28;20227;-79
2024/01/27 02:18:13;;;;;;;17.07;2.53;;;4.80;60.70;;;;;;5044878;28;20299;-79
2024/01/27 02:20:40;;;;;;;14.70;2.50;;;4.80;99.90;;;;;;5038067;28;20230;-80
2024/01/27 02:23:08;;;;;;;15.27;2.70;;;5.00;99.00;;;;;;5040554;28;20206;-80
2024/01/27 02:25:37;;;;;;;10.93;2.40;;;4.80;99.90;;;;;;5034030;28;20227;-79
2024/01/27 02:28:04;;;;;;;17.53;3.17;;;4.80;99.90;;;;;;5037518;28;20282;-79
2024/01/27 02:30:31;;;;;;;15.30;2.27;;;4.80;99.90;;;;;;5035679;28;20208;-79
2024/01/27 02:32:58;;;;;;;11.73;2.50;;;4.80;99.90;;;;;;5036716;28;20208;-80
2024/01/27 02:35:25;;;;;;;16.47;2.90;;;4.70;99.90;;;;;;5042025;28;20298;-80
2024/01/27 02:37:52;;;;;;;15.40;2.67;;;4.70;99.90;;;;;;5043300;28;20206;-79
2024/01/27 02:40:19;;;;;;;15.87;2.77;;;4.70;99.90;;;;;;5034855;28;20231;-79
2024/01/27 02:42:47;;;;;;;19.37;2.90;;;4.60;1.00;;;;;;5042087;28;20207;-78
2024/01/27 02:45:14;;;;;;;16.23;3.27;;;4.50;1.00;;;;;;5039806;28;20199;-78
2024/01/27 02:47:41;;;;;;;13.07;2.90;;;4.50;1.00;;;;;;5040149;28;20210;-79
2024/01/27 02:50:08;;;;;;;14.87;3.33;;;4.50;1.00;;;;;;5038647;28;20203;-78
2024/01/27 02:52:35;;;;;;;17.27;3.07;;;4.40;1.00;;;;;;5044288;28;20207;-77
2024/01/27 02:55:02;;;;;;;14.33;3.47;;;4.40;1.00;;;;;;5038938;28;20691;-78
2024/01/27 02:57:29;;;;;;;19.53;3.37;;;4.60;1.00;;;;;;5042893;28;20871;-80
2024/01/27 02:59:57;;;;;;;15.70;3.20;;;4.70;1.00;;;;;;5036960;28;20223;-79
2024/01/27 03:02:24;;;;;;;14.97;3.47;;;4.30;1.00;;;;;;5039568;28;20206;-79
2024/01/27 03:04:50;;;;;;;16.30;3.10;;;4.20;1.00;;;;;;5042101;28;20214;-79
2024/01/27 03:07:17;;;;;;;15.97;3.13;;;4.20;1.00;;;;;;5037067;28;20223;-78
2024/01/27 03:09:44;;;;;;;15.00;3.30;;;4.20;99.90;;;;;;5043939;28;20212;-79
2024/01/27 03:12:11;;;;;;;11.80;2.70;;;4.20;99.90;;;;;;5037906;28;20558;-79
2024/01/27 03:14:38;;;;;;;16.83;3.50;;;4.20;99.90;;;;;;5040816;28;20290;-79
2024/01/27 03:17:05;;;;;;;19.30;3.23;;;4.20;99.90;;;;;;5043144;28;20222;-79
2024/01/27 03:19:32;;;;;;;16.87;3.00;;;4.10;99.90;;;;;;5040365;28;20276;-78
2024/01/27 03:21:58;;;;;;;13.27;4.90;;;4.10;1.00;;;;;;5040304;28;20210;-78
2024/01/27 03:24:25;;;;;;;15.67;3.23;;;4.10;99.90;;;;;;5034807;28;20202;-78
2024/01/27 03:26:52;;;;;;;17.67;3.43;;;4.10;1.00;;;;;;5040662;28;20223;-79
2024/01/27 03:29:19;;;;;;;13.23;3.43;;;4.40;1.00;;;;;;5036943;28;20662;-79
2024/01/27 03:31:45;;;;;;;20.13;5.07;;;4.00;1.00;;;;;;5040282;28;20684;-78
2024/01/27 03:34:14;;;;;;;16.10;3.40;;;4.00;1.00;;;;;;5039418;28;20214;-78
2024/01/27 03:36:41;;;;;;;16.37;3.27;;;4.00;1.00;;;;;;5044240;28;20234;-78
2024/01/27 03:39:08;;;;;;;15.57;2.83;;;4.00;1.00;;;;;;5044529;28;20213;-78
2024/01/27 03:41:35;;;;;;;20.20;3.07;;;4.00;1.00;;;;;;5046536;28;21162;-80
2024/01/27 03:44:02;;;;;;;17.27;4.13;;;3.90;1.00;;;;;;5042062;28;20278;-79
2024/01/27 03:46:28;;;;;;;15.07;3.47;;;3.80;1.00;;;;;;5042417;28;20224;-79
2024/01/27 03:48:56;;;;;;;12.57;3.47;;;3.80;1.00;;;;;;5039170;28;20199;-79
2024/01/27 03:51:25;;;;;;;13.37;2.97;;;3.90;1.00;;;;;;5043950;28;20548;-79
2024/01/27 03:53:52;;;;;;;14.47;3.23;;;3.90;1.00;;;;;;5044441;28;20203;-79
2024/01/27 03:56:18;;;;;;;16.83;3.63;;;3.90;1.00;;;;;;5042208;28;20226;-79
2024/01/27 03:58:45;;;;;;;14.63;3.30;;;3.80;1.00;;;;;;5037406;28;20404;-79
2024/01/27 04:01:12;;;;;;;14.87;4.27;;;3.90;1.00;;;;;;5041047;28;20675;-79
2024/01/27 04:03:39;;;;;;;13.00;3.63;;;3.80;1.00;;;;;;5036800;28;20203;-79
2024/01/27 04:06:06;;;;;;;12.97;3.30;;;3.80;99.90;;;;;;5044166;28;20223;-79
2024/01/27 04:08:34;;;;;;;16.20;3.83;;;3.70;99.90;;;;;;5041628;28;20231;-79
2024/01/27 04:11:01;;;;;;;14.23;3.10;;;4.00;1.00;;;;;;5036529;28;20207;-79
2024/01/27 04:13:27;;;;;;;15.93;3.30;;;3.60;1.00;;;;;;5038626;28;20282;-78
2024/01/27 04:15:54;;;;;;;14.60;3.73;;;3.60;1.00;;;;;;5038597;28;20223;-79
2024/01/27 04:18:21;;;;;;;14.13;3.60;;;3.60;1.00;;;;;;5038709;28;20212;-78
2024/01/27 04:20:49;;;;;;;18.63;3.43;;;3.60;1.00;;;;;;5036351;28;20251;-78
2024/01/27 04:23:16;;;;;;;20.30;3.83;;;3.60;1.00;;;;;;5038851;28;20659;-78
2024/01/27 04:25:45;;;;;;;17.03;3.83;;;3.60;13.40;;;;;;5037856;28;20260;-79
2024/01/27 04:28:12;;;;;;;13.40;3.70;;;3.50;69.40;;;;;;5035190;28;20210;-79
2024/01/27 04:30:39;;;;;;;12.43;3.60;;;3.60;99.90;;;;;;5036451;28;20254;-79
2024/01/27 04:33:07;;;;;;;13.37;3.47;;;3.50;99.90;;;;;;5036130;28;20231;-79
2024/01/27 04:35:34;;;;;;;11.60;3.20;;;3.30;99.90;;;;;;5036390;28;20269;-79
2024/01/27 04:38:01;;;;;;;12.23;3.80;;;3.20;99.90;;;;;;5039480;28;20249;-78
2024/01/27 04:40:28;;;;;;;15.63;3.80;;;3.10;1.00;;;;;;5039577;28;20223;-79
2024/01/27 04:42:56;;;;;;;18.20;4.90;;;3.20;1.00;;;;;;5041399;28;20209;-79
2024/01/27 04:45:23;;;;;;;14.53;3.40;;;3.10;1.00;;;;;;5040364;28;20219;-79
2024/01/27 04:47:49;;;;;;;19.37;3.90;;;3.10;1.00;;;;;;5036394;28;20560;-78
2024/01/27 04:50:16;;;;;;;11.23;3.57;;;3.10;95.30;;;;;;5038918;28;20192;-78
2024/01/27 04:52:43;;;;;;;18.50;3.80;;;3.10;99.90;;;;;;5038130;28;20207;-78
2024/01/27 04:55:10;;;;;;;12.17;3.40;;;3.10;99.90;;;;;;5040912;28;20199;-78
2024/01/27 04:57:37;;;;;;;18.87;3.60;;;3.00;99.90;;;;;;5036541;28;20210;-79
2024/01/27 05:00:10;;;;;;;11.90;3.50;;;3.00;99.90;;;;;;5035392;28;20227;-79
2024/01/27 05:02:37;;;;;;;13.07;3.63;;;2.80;29.60;;;;;;5036623;28;20203;-78
2024/01/27 05:05:04;;;;;;;9.63;3.63;;;2.70;1.00;;;;;;5037697;28;20286;-78
2024/01/27 05:07:31;;;;;;;14.27;3.60;;;2.60;1.00;;;;;;5034622;28;20199;-78
2024/01/27 05:09:57;;;;;;;17.23;3.70;;;2.50;99.90;;;;;;5034316;28;20192;-78
2024/01/27 05:12:24;;;;;;;11.90;3.30;;;2.40;99.90;;;;;;5036134;28;20291;-78
2024/01/27 05:14:51;;;;;;;12.17;3.40;;;2.30;99.90;;;;;;5037651;28;20206;-78
2024/01/27 05:17:19;;;;;;;17.80;3.57;;;2.40;1.00;;;;;;5035697;28;20230;-79
2024/01/27 05:19:46;;;;;;;13.20;3.53;;;2.40;1.00;;;;;;5037905;28;20210;-78
2024/01/27 05:22:13;;;;;;;14.80;4.43;;;2.40;1.00;;;;;;5038418;28;20212;-78
2024/01/27 05:24:39;;;;;;;19.87;4.03;;;2.30;1.00;;;;;;5037426;28;20199;-78
2024/01/27 05:27:06;;;;;;;13.17;4.13;;;2.40;1.00;;;;;;5038587;28;20230;-79
2024/01/27 05:29:33;;;;;;;15.67;3.93;;;2.50;1.00;;;;;;5035540;28;20207;-78
2024/01/27 05:32:00;;;;;;;18.60;4.53;;;2.60;1.00;;;;;;5036718;28;20225;-78
2024/01/27 05:34:28;;;;;;;13.00;3.80;;;2.30;1.00;;;;;;5036475;28;20207;-78
2024/01/27 05:36:55;;;;;;;14.40;4.90;;;2.20;1.00;;;;;;5038252;28;20227;-78
2024/01/27 05:39:22;;;;;;;14.57;4.50;;;2.30;1.00;;;;;;5040130;28;20203;-78
2024/01/27 05:41:48;;;;;;;18.13;4.40;;;2.20;1.00;;;;;;5041846;28;20226;-79
2024/01/27 05:44:15;;;;;;;15.30;4.10;;;2.10;1.00;;;;;;5040499;28;20200;-80
2024/01/27 05:46:42;;;;;;;15.53;4.33;;;2.20;74.10;;;;;;5037466;28;20234;-78
2024/01/27 05:49:09;;;;;;;14.23;4.70;;;2.30;99.90;;;;;;5044025;28;20213;-78
2024/01/27 05:51:38;;;;;;;12.17;3.70;;;2.30;99.90;;;;;;5038276;28;20206;-78
2024/01/27 05:54:04;;;;;;;14.87;4.33;;;2.30;96.80;;;;;;5040781;28;20210;-78
2024/01/27 05:56:31;;;;;;;17.20;4.70;;;2.40;99.90;;;;;;5040742;28;20219;-78
2024/01/27 05:58:58;;;;;;;13.70;3.90;;;2.20;85.00;;;;;;5041082;28;20586;-78
2024/01/27 06:01:25;;;;;;;18.43;4.20;;;2.40;96.80;;;;;;5037848;28;20600;-78
2024/01/27 06:03:51;;;;;;;14.30;4.07;;;2.40;29.00;;;;;;5045188;28;20208;-77
2024/01/27 06:06:18;;;;;;;16.13;3.90;;;2.30;1.00;;;;;;5039684;28;20220;-78
2024/01/27 06:08:46;;;;;;;21.40;4.60;;;2.30;1.00;;;;;;5039870;28;20203;-78
2024/01/27 06:11:13;;;;;;;18.10;5.37;;;2.30;1.00;;;;;;5042315;28;20285;-78
2024/01/27 06:13:41;;;;;;;19.33;4.27;;;2.40;62.70;;;;;;5040183;28;20207;-78
2024/01/27 06:16:09;;;;;;;19.80;4.73;;;2.10;1.00;;;;;;5042972;28;20239;-78
2024/01/27 06:18:36;;;;;;;14.70;4.63;;;2.10;1.00;;;;;;5044576;28;20654;-79
2024/01/27 06:21:04;;;;;;;20.23;4.57;;;2.00;1.00;;;;;;5045461;28;20318;-80
2024/01/27 06:23:30;;;;;;;22.47;8.10;;;2.10;99.90;;;;;;5046142;28;20200;-79
2024/01/27 06:25:59;;;;;;;15.17;4.87;;;1.90;99.90;;;;;;5043006;28;20223;-78
2024/01/27 06:28:26;;;;;;;13.93;4.47;;;1.90;99.90;;;;;;5042595;28;20230;-79
2024/01/27 06:30:52;;;;;;;20.40;4.47;;;2.00;99.90;;;;;;5042894;28;20200;-79
2024/01/27 06:33:20;;;;;;;14.87;4.80;;;2.10;99.90;;;;;;5039019;28;20214;-79
2024/01/27 06:35:46;;;;;;;12.50;4.37;;;2.10;99.90;;;;;;5040437;28;20231;-79
2024/01/27 06:38:14;;;;;;;15.87;4.73;;;2.10;99.90;;;;;;5043859;28;20665;-77
2024/01/27 06:40:40;;;;;;;21.07;5.07;;;2.10;99.90;;;;;;5041920;28;20214;-78
2024/01/27 06:43:09;;;;;;;16.60;5.60;;;2.10;99.90;;;;;;5046758;28;20215;-79
2024/01/27 06:45:36;;;;;;;14.07;4.57;;;2.30;99.90;;;;;;5039657;28;20230;-78
2024/01/27 06:48:02;;;;;;;15.83;5.37;;;2.40;1.00;;;;;;5042737;28;20606;-78
2024/01/27 06:50:29;;;;;;;17.13;4.97;;;2.40;1.00;;;;;;5044615;28;20195;-78
2024/01/27 06:52:56;;;;;;;15.67;5.10;;;2.30;1.00;;;;;;5041069;28;20192;-79
2024/01/27 06:55:23;;;;;;;18.80;4.90;;;2.50;1.00;;;;;;5041536;28;20597;-79
2024/01/27 06:57:50;;;;;;;13.37;4.33;;;2.50;1.00;;;;;;5048340;28;20211;-78
2024/01/27 07:00:19;;;;;;;16.47;4.70;;;2.40;1.00;;;;;;5038393;28;20607;-81
2024/01/27 07:02:46;;;;;;;15.50;4.80;;;2.30;1.00;;;;;;5041069;28;20271;-79
2024/01/27 07:05:14;;;;;;;20.73;5.07;;;2.40;1.00;;;;;;5041270;28;20211;-80
2024/01/27 07:07:41;;;;;;;21.03;5.60;;;2.30;1.00;;;;;;5041091;28;20689;-78
2024/01/27 07:10:09;;;;;;;15.70;4.70;;;2.30;1.00;;;;;;5037240;28;20209;-79
2024/01/27 07:12:36;;;;;;;18.60;5.10;;;2.40;1.00;;;;;;5037477;28;20207;-79
2024/01/27 07:15:03;;;;;;;15.20;5.00;;;2.30;1.00;;;;;;5030521;28;20540;-80
2024/01/27 07:17:31;;;;;;;14.63;5.50;;;2.40;1.00;;;;;;5036320;28;20217;-80
2024/01/27 07:19:58;;;;;;;14.00;5.03;;;2.40;1.00;;;;;;5038750;28;20211;-79
2024/01/27 07:22:25;;;;;;;16.57;5.33;;;2.40;1.00;;;;;;5035533;28;20219;-79
2024/01/27 07:24:52;;;;;;;17.53;5.57;;;2.40;1.00;;;;;;5038572;28;20204;-79
2024/01/27 07:27:19;;;;;;;16.87;5.33;;;2.40;1.00;;;;;;5046587;28;20592;-80
2024/01/27 07:29:45;;;;;;;20.37;5.27;;;2.40;1.00;;;;;;5038116;28;20207;-80
2024/01/27 07:32:13;;;;;;;18.07;4.80;;;2.20;1.00;;;;;;5038674;28;20208;-79
2024/01/27 07:34:44;;;;;;;16.07;5.90;;;2.30;1.00;;;;;;5037230;28;20208;-79
2024/01/27 07:37:11;;;;;;;13.30;4.90;;;2.90;1.00;;;;;;5037965;28;20224;-79
2024/01/27 07:39:37;;;;;;;20.33;6.87;;;2.30;1.00;;;;;;5037099;28;20210;-80
2024/01/27 07:42:04;;;;;;;13.83;5.10;;;2.30;1.00;;;;;;5037120;28;20219;-78
2024/01/27 07:44:31;;;;;;;14.07;5.87;;;2.40;1.00;;;;;;5043272;28;20575;-79
2024/01/27 07:46:58;;;;;;;18.63;6.70;;;2.50;1.00;;;;;;5040406;28;20223;-80
2024/01/27 07:49:25;;;;;;;19.37;6.37;;;2.50;1.00;;;;;;5048517;28;20200;-80
2024/01/27 07:51:53;;;;;;;17.40;5.40;;;2.60;1.00;;;;;;5036399;28;20195;-80
2024/01/27 07:54:20;;;;;;;19.00;7.23;;;2.50;1.00;;;;;;5034584;28;20208;-80
2024/01/27 07:56:47;;;;;;;15.97;6.00;;;2.60;1.00;;;;;;5040811;28;20221;-80
2024/01/27 07:59:15;;;;;;;13.87;5.00;;;2.50;1.00;;;;;;5032285;28;20683;-80
2024/01/27 08:01:42;;;;;;;16.20;5.43;;;2.50;1.00;;;;;;5038712;28;20228;-79
2024/01/27 08:04:09;;;;;;;16.27;5.63;;;2.50;1.00;;;;;;5042442;28;20234;-78
2024/01/27 08:06:47;;;;;;;19.37;6.13;;;2.70;1.00;;;;;;5036214;28;20219;-79
2024/01/27 08:09:16;;;;;;;16.77;5.23;;;2.70;1.00;;;;;;5035050;28;20211;-79
2024/01/27 08:11:43;;;;;;;16.37;6.00;;;2.80;1.00;;;;;;5037310;28;20674;-79
2024/01/27 08:14:10;;;;;;;15.87;5.47;;;2.80;1.00;;;;;;5037099;28;20204;-80
2024/01/27 08:16:36;;;;;;;20.77;6.70;;;3.00;99.90;;;;;;5039587;28;20242;-80
2024/01/27 08:19:04;;;;;;;24.23;6.57;;;3.40;1.00;;;;;;5035126;28;20200;-80
2024/01/27 08:21:30;;;;;;;15.17;6.30;;;3.40;99.90;;;;;;5037738;28;20235;-79
2024/01/27 08:23:57;;;;;;;17.63;6.80;;;3.40;49.50;;;;;;5038816;28;20200;-79
2024/01/27 08:26:24;;;;;;;21.50;6.77;;;3.30;24.10;;;;;;5037688;28;20231;-79
2024/01/27 08:28:51;;;;;;;19.10;6.10;;;3.50;1.00;;;;;;5038582;28;20195;-80
2024/01/27 08:31:18;;;;;;;18.60;6.17;;;3.60;1.00;;;;;;5035794;28;20196;-80
2024/01/27 08:33:45;;;;;;;17.10;7.07;;;3.80;1.00;;;;;;5040461;28;20210;-80
2024/01/27 08:36:14;;;;;;;16.03;5.73;;;4.10;1.00;;;;;;5037501;28;20657;-80
2024/01/27 08:38:41;;;;;;;20.17;5.80;;;4.50;1.00;;;;;;5033746;28;20222;-80
2024/01/27 08:41:08;;;;;;;22.40;6.10;;;4.70;99.90;;;;;;5050200;28;20227;-79
2024/01/27 08:43:36;;;;;;;15.07;5.73;;;5.00;99.90;;;;;;5029044;28;20215;-80
2024/01/27 08:46:03;;;;;;;16.47;6.17;;;4.60;99.90;;;;;;5048228;28;20219;-80
2024/01/27 08:48:29;;;;;;;19.87;6.70;;;5.10;99.90;;;;;;5036532;28;20212;-80
2024/01/27 08:50:56;;;;;;;15.97;5.13;;;5.30;1.00;;;;;;5036357;28;20204;-80
2024/01/27 08:53:23;;;;;;;16.97;5.20;;;5.00;1.00;;;;;;5049715;28;20207;-79
2024/01/27 08:55:50;;;;;;;18.10;5.40;;;5.50;1.00;;;;;;5037882;28;20215;-80
2024/01/27 08:58:16;;;;;;;15.97;5.67;;;5.20;99.90;;;;;;5036600;28;20203;-80
2024/01/27 09:00:45;;;;;;;17.00;5.57;;;4.90;1.00;;;;;;5034381;28;20675;-81
2024/01/27 09:03:12;;;;;;;15.90;5.67;;;4.60;21.10;;;;;;5035410;28;20231;-80
2024/01/27 09:05:40;;;;;;;19.40;6.20;;;4.60;1.00;;;;;;5041320;28;20713;-80
2024/01/27 09:08:07;;;;;;;19.23;5.77;;;5.30;1.00;;;;;;5037001;28;20262;-81
2024/01/27 09:10:34;;;;;;;18.53;6.57;;;5.20;1.00;;;;;;5040137;28;20205;-81
2024/01/27 09:13:01;;;;;;;23.63;7.90;;;5.70;99.90;;;;;;5040695;28;20227;-78
2024/01/27 09:15:28;;;;;;;14.20;5.63;;;6.10;51.80;;;;;;5037288;28;20592;-80
2024/01/27 09:17:56;;;;;;;18.73;6.87;;;5.60;99.90;;;;;;5038942;28;20224;-81
2024/01/27 09:20:23;;;;;;;13.83;5.97;;;6.00;31.90;;;;;;5036570;28;20228;-81
2024/01/27 09:22:50;;;;;;;16.23;6.50;;;5.30;99.90;;;;;;5039168;28;20228;-80
2024/01/27 09:25:18;;;;;;;18.80;7.10;;;5.50;99.90;;;;;;5037330;28;20291;-81
2024/01/27 09:27:44;;;;;;;20.77;7.20;;;5.70;1.00;;;;;;5038940;28;20204;-80
2024/01/27 09:30:12;;;;;;;21.33;7.63;;;5.30;99.90;;;;;;5036844;28;20199;-81
2024/01/27 09:32:40;;;;;;;19.33;6.97;;;5.30;99.90;;;;;;5037310;28;20218;-79
2024/01/27 09:35:08;;;;;;;24.73;9.77;;;5.30;70.00;;;;;;5034648;28;20200;-79
2024/01/27 09:37:35;;;;;;;21.70;8.97;;;6.30;1.00;;;;;;5034295;28;20203;-80
2024/01/27 09:40:02;;;;;;;20.60;7.67;;;6.30;1.00;;;;;;5034843;28;20196;-80
2024/01/27 09:42:29;;;;;;;18.57;8.07;;;5.80;1.00;;;;;;5043469;28;20260;-80
2024/01/27 09:44:59;;;;;;;18.73;7.70;;;5.70;1.00;;;;;;5041029;28;20649;-80
2024/01/27 09:47:26;;;;;;;15.43;7.83;;;5.50;1.00;;;;;;5052440;28;20209;-80
2024/01/27 09:49:53;;;;;;;21.50;9.40;;;5.50;20.00;;;;;;5039803;28;20199;-81
2024/01/27 09:52:21;;;;;;;22.13;8.70;;;5.60;80.70;;;;;;5052694;28;20202;-80
2024/01/27 09:54:48;;;;;;;19.60;8.20;;;5.70;1.00;;;;;;5044776;28;20655;-80
2024/01/27 09:57:18;;;;;;;23.27;8.60;;;5.80;1.00;;;;;;5043942;28;20261;-80
2024/01/27 09:59:46;;;;;;;21.10;9.33;;;5.80;1.00;;;;;;5044456;28;20200;-80
2024/01/27 10:02:14;;;;;;;22.37;9.60;;;5.70;1.00;;;;;;5049266;28;20600;-80
2024/01/27 10:04:42;;;;;;;26.13;10.50;;;5.80;1.00;;;;;;5036568;28;20199;-80
2024/01/27 10:07:09;;;;;;;24.03;9.53;;;5.70;1.00;;;;;;5037269;28;20249;-79
2024/01/27 10:09:38;;;;;;;19.33;8.97;;;5.80;1.00;;;;;;5043451;28;20282;-80
2024/01/27 10:12:06;;;;;;;21.47;9.80;;;5.80;1.00;;;;;;5042322;28;20200;-81
2024/01/27 10:14:39;;;;;;;21.93;9.47;;;6.00;1.00;;;;;;5041674;28;20287;-82
2024/01/27 10:17:09;;;;;;;22.93;10.37;;;6.10;1.00;;;;;;5041702;28;20258;-80
2024/01/27 10:19:36;;;;;;;21.40;10.03;;;6.30;1.00;;;;;;5038177;28;20211;-80
2024/01/27 10:22:03;;;;;;;23.30;9.77;;;6.50;1.00;;;;;;5040813;28;20216;-80
2024/01/27 10:24:32;;;;;;;21.33;8.47;;;6.80;1.00;;;;;;5038862;28;20212;-81
2024/01/27 10:27:02;;;;;;;20.57;9.37;;;6.80;1.00;;;;;;5038744;28;20216;-80
2024/01/27 10:29:29;;;;;;;19.90;8.77;;;6.80;99.90;;;;;;5039195;28;20230;-80
2024/01/27 10:31:55;;;;;;;20.03;8.43;;;6.90;99.90;;;;;;5040604;28;20207;-79
2024/01/27 10:34:22;;;;;;;19.57;9.43;;;7.10;99.90;;;;;;5039374;28;20206;-79
2024/01/27 10:36:49;;;;;;;18.80;9.47;;;7.10;99.90;;;;;;5039476;28;20223;-79
2024/01/27 10:39:21;;;;;;;20.67;9.27;;;7.10;99.90;;;;;;5037806;28;20199;-80
2024/01/27 10:41:49;;;;;;;19.33;9.53;;;7.10;99.90;;;;;;5032428;28;20220;-80
2024/01/27 10:44:18;;;;;;;22.77;8.43;;;7.20;99.90;;;;;;5038178;28;20318;-80
2024/01/27 10:46:47;;;;;;;25.67;9.40;;;7.30;99.90;;;;;;5047298;28;20233;-79
2024/01/27 10:49:15;;;;;;;18.03;8.03;;;7.40;99.90;;;;;;5047993;28;20205;-80
2024/01/27 10:51:45;;;;;;;18.93;8.23;;;7.40;99.90;;;;;;5050814;28;20571;-79
2024/01/27 10:54:15;;;;;;;19.97;8.90;;;7.70;99.90;;;;;;5051069;28;20547;-80
2024/01/27 10:56:44;;;;;;;20.67;9.27;;;7.60;99.90;;;;;;5052689;28;20269;-81
2024/01/27 10:59:14;;;;;;;21.70;10.17;;;7.60;99.90;;;;;;5053241;28;20200;-81
2024/01/27 11:01:43;;;;;;;31.30;9.43;;;7.60;55.60;;;;;;5051824;28;20655;-80
2024/01/27 11:04:14;;;;;;;18.97;8.00;;;7.70;47.40;;;;;;5055726;28;20227;-81
2024/01/27 11:06:41;;;;;;;15.33;7.47;;;7.70;61.20;;;;;;5050813;28;20242;-78
2024/01/27 11:09:11;;;;;;;23.50;7.70;;;7.70;1.00;;;;;;5051141;28;20211;-80
2024/01/27 11:11:40;;;;;;;15.23;7.03;;;7.50;1.00;;;;;;5051990;28;20227;-81
2024/01/27 11:14:07;;;;;;;22.53;8.37;;;7.70;1.00;;;;;;5052221;28;20207;-80
2024/01/27 11:16:34;;;;;;;20.07;7.07;;;7.50;1.00;;;;;;5049938;28;20317;-79
2024/01/27 11:19:03;;;;;;;18.10;8.30;;;7.50;1.00;;;;;;5048781;28;20245;-81
2024/01/27 11:21:30;;;;;;;17.27;7.43;;;7.50;55.00;;;;;;5051003;28;20196;-80
2024/01/27 11:23:56;;;;;;;20.70;7.20;;;7.60;1.00;;;;;;5047818;28;20267;-79
2024/01/27 11:26:25;;;;;;;14.10;6.20;;;7.60;1.00;;;;;;5047990;28;20242;-80
2024/01/27 11:28:52;;;;;;;16.50;7.37;;;7.70;1.00;;;;;;5041729;28;20199;-81
2024/01/27 11:31:20;;;;;;;18.50;6.63;;;7.80;1.00;;;;;;5044238;28;20203;-81
2024/01/27 11:33:51;;;;;;;22.20;7.50;;;7.90;1.00;;;;;;5042085;28;20721;-80
2024/01/27 11:36:24;;;;;;;17.63;7.50;;;7.90;1.00;;;;;;5042072;28;20223;-81
2024/01/27 11:38:52;;;;;;;17.33;6.80;;;8.00;1.00;;;;;;5036860;28;20207;-81
2024/01/27 11:41:26;;;;;;;20.37;6.90;;;8.00;1.00;;;;;;5039257;28;20276;-81
2024/01/27 11:43:53;;;;;;;18.97;5.90;;;7.80;1.00;;;;;;5034357;28;20203;-80
2024/01/27 11:46:21;;;;;;;17.00;6.37;;;7.90;1.00;;;;;;5043826;28;20314;-77
2024/01/27 11:48:48;;;;;;;17.17;7.20;;;7.80;1.00;;;;;;5042168;28;20292;-79
2024/01/27 11:51:15;;;;;;;20.70;7.40;;;7.80;1.00;;;;;;5041836;28;20266;-79
2024/01/27 11:53:44;;;;;;;15.87;6.97;;;7.80;1.00;;;;;;5046113;28;20651;-79
2024/01/27 11:56:12;;;;;;;21.37;7.67;;;7.70;1.00;;;;;;5053288;28;20223;-78
2024/01/27 11:58:38;;;;;;;16.37;6.83;;;7.80;1.00;;;;;;5053504;28;20567;-78
2024/01/27 12:01:05;;;;;;;18.60;7.30;;;7.90;1.00;;;;;;5050680;28;20220;-81
2024/01/27 12:03:33;;;;;;;16.43;6.17;;;8.10;1.00;;;;;;5053097;28;20561;-79
2024/01/27 12:06:00;;;;;;;22.30;6.47;;;8.20;1.00;;;;;;5053551;28;20315;-79
2024/01/27 12:08:27;;;;;;;16.97;6.47;;;8.30;1.00;;;;;;5047399;28;20202;-78
2024/01/27 12:10:55;;;;;;;17.73;6.87;;;8.30;1.00;;;;;;5045483;28;20671;-80
2024/01/27 12:13:22;;;;;;;19.90;6.40;;;8.50;1.00;;;;;;5053982;28;20199;-80
2024/01/27 12:15:49;;;;;;;16.70;6.30;;;9.10;1.00;;;;;;5048634;28;20262;-78
2024/01/27 12:18:16;;;;;;;17.73;5.87;;;10.10;1.00;;;;;;5046772;28;20194;-80
2024/01/27 12:20:42;;;;;;;16.17;5.80;;;10.40;99.90;;;;;;5046725;28;20199;-78
2024/01/27 12:23:10;;;;;;;17.70;6.27;;;10.70;99.90;;;;;;5047664;28;20714;-78
2024/01/27 12:25:36;;;;;;;19.37;6.80;;;10.30;99.90;;;;;;5044031;28;20295;-79
2024/01/27 12:28:07;;;;;;;14.20;5.47;;;10.00;99.90;;;;;;5043133;28;20206;-76
2024/01/27 12:30:34;;;;;;;12.73;5.10;;;10.50;99.90;;;;;;5039575;28;20222;-80
2024/01/27 12:33:01;;;;;;;16.33;5.83;;;10.70;99.90;;;;;;5045419;28;20570;-81
2024/01/27 12:35:29;;;;;;;15.10;5.23;;;10.80;99.90;;;;;;5043489;28;20399;-80
2024/01/27 12:37:56;;;;;;;18.80;4.93;;;10.20;99.90;;;;;;5043202;28;20215;-80
2024/01/27 12:40:24;;;;;;;15.07;4.90;;;9.50;99.90;;;;;;5040830;28;20266;-81
2024/01/27 12:42:51;;;;;;;17.40;5.23;;;9.40;99.90;;;;;;5045085;28;20646;-81
2024/01/27 12:45:19;;;;;;;17.30;5.63;;;9.80;99.90;;;;;;5042864;28;20573;-79
2024/01/27 12:47:46;;;;;;;14.33;5.43;;;9.60;99.90;;;;;;5043695;28;20212;-78
2024/01/27 12:50:13;;;;;;;17.87;6.83;;;9.80;99.90;;;;;;5043516;28;20239;-80
2024/01/27 12:52:39;;;;;;;15.50;5.77;;;9.80;99.90;;;;;;5043140;28;20196;-79